地図

経路データ

SID SEASON NUMBER BASIN SUBBASIN NAME ISO_TIME NATURE LAT LON WMO_WIND WMO_PRES WMO_AGENCY TRACK_TYPE DIST2LAND LANDFALL IFLAG USA_AGENCY USA_ATCF_ID USA_LAT USA_LON USA_RECORD USA_STATUS USA_WIND USA_PRES USA_SSHS USA_R34_NE USA_R34_SE USA_R34_SW USA_R34_NW USA_R50_NE USA_R50_SE USA_R50_SW USA_R50_NW USA_R64_NE USA_R64_SE USA_R64_SW USA_R64_NW USA_POCI USA_ROCI USA_RMW USA_EYE TOKYO_LAT TOKYO_LON TOKYO_GRADE TOKYO_WIND TOKYO_PRES TOKYO_R50_DIR TOKYO_R50_LONG TOKYO_R50_SHORT TOKYO_R30_DIR TOKYO_R30_LONG TOKYO_R30_SHORT TOKYO_LAND CMA_LAT CMA_LON CMA_CAT CMA_WIND CMA_PRES HKO_LAT HKO_LON HKO_CAT HKO_WIND HKO_PRES NEWDELHI_LAT NEWDELHI_LON NEWDELHI_GRADE NEWDELHI_WIND NEWDELHI_PRES NEWDELHI_CI NEWDELHI_DP NEWDELHI_POCI REUNION_LAT REUNION_LON REUNION_TYPE REUNION_WIND REUNION_PRES REUNION_TNUM REUNION_CI REUNION_RMW REUNION_R34_NE REUNION_R34_SE REUNION_R34_SW REUNION_R34_NW REUNION_R50_NE REUNION_R50_SE REUNION_R50_SW REUNION_R50_NW REUNION_R64_NE REUNION_R64_SE REUNION_R64_SW REUNION_R64_NW BOM_LAT BOM_LON BOM_TYPE BOM_WIND BOM_PRES BOM_TNUM BOM_CI BOM_RMW BOM_R34_NE BOM_R34_SE BOM_R34_SW BOM_R34_NW BOM_R50_NE BOM_R50_SE BOM_R50_SW BOM_R50_NW BOM_R64_NE BOM_R64_SE BOM_R64_SW BOM_R64_NW BOM_ROCI BOM_POCI BOM_EYE BOM_POS_METHOD BOM_PRES_METHOD NADI_LAT NADI_LON NADI_CAT NADI_WIND NADI_PRES WELLINGTON_LAT WELLINGTON_LON WELLINGTON_WIND WELLINGTON_PRES DS824_LAT DS824_LON DS824_STAGE DS824_WIND DS824_PRES TD9636_LAT TD9636_LON TD9636_STAGE TD9636_WIND TD9636_PRES TD9635_LAT TD9635_LON TD9635_WIND TD9635_PRES TD9635_ROCI NEUMANN_LAT NEUMANN_LON NEUMANN_CLASS NEUMANN_WIND NEUMANN_PRES MLC_LAT MLC_LON MLC_CLASS MLC_WIND MLC_PRES USA_GUST BOM_GUST BOM_GUST_PER REUNION_GUST REUNION_GUST_PER USA_SEAHGT USA_SEARAD_NE USA_SEARAD_SE USA_SEARAD_SW USA_SEARAD_NW STORM_SPEED STORM_DIR
1998204N17144 1998 40 WP MM NOT_NAMED 1998-07-22 18:00:00 NR 17.0000 144.100 main 2011 2005 O_____________ jtwc_wp WP031998 17.0000 144.100 10 -1 3 43
1998204N17144 1998 40 WP MM NOT_NAMED 1998-07-22 21:00:00 NR 17.1050 144.200 main 2005 1994 P_____________ WP031998 17.1050 144.200 12 -1 3 44
1998204N17144 1998 40 WP MM NOT_NAMED 1998-07-23 00:00:00 NR 17.2000 144.300 main 1998 1992 O_____________ jtwc_wp WP031998 17.2000 144.300 15 -1 3 47
1998204N17144 1998 40 WP MM NOT_NAMED 1998-07-23 03:00:00 NR 17.2974 144.413 main 1992 1981 P_____________ WP031998 17.2974 144.413 15 -1 4 43
1998204N17144 1998 40 WP MM NOT_NAMED 1998-07-23 06:00:00 NR 17.5000 144.600 main 1981 1954 O_____________ jtwc_wp WP031998 17.5000 144.600 15 -1 8 38
1998204N17144 1998 40 WP MM NOT_NAMED 1998-07-23 09:00:00 NR 17.8975 144.912 main 1954 1918 P_____________ WP031998 17.8975 144.912 15 -1 11 36
1998204N17144 1998 40 WP MM NOT_NAMED 1998-07-23 12:00:00 NR 18.4000 145.300 main 1918 1883 O_____________ jtwc_wp WP031998 18.4000 145.300 15 -1 12 37
1998204N17144 1998 40 WP MM NOT_NAMED 1998-07-23 15:00:00 NR 18.8698 145.671 main 1875 1834 P_____________ WP031998 18.8698 145.671 15 -1 13 37
1998204N17144 1998 40 WP MM NOT_NAMED 1998-07-23 18:00:00 NR 19.4000 146.100 main 1834 1788 O_____________ jtwc_wp WP031998 19.4000 146.100 15 -1 15 38
1998204N17144 1998 40 WP MM NOT_NAMED 1998-07-23 21:00:00 NR 20.0351 146.635 main 1788 1738 P_____________ WP031998 20.0351 146.635 20 -1 17 38
1998204N17144 1998 40 WP MM NOT_NAMED 1998-07-24 00:00:00 NR 20.7000 147.200 main 1738 1698 O_____________ jtwc_wp WP031998 20.7000 147.200 25 -1 16 39
1998204N17144 1998 40 WP MM NOT_NAMED 1998-07-24 03:00:00 NR 21.2848 147.716 main 1698 1660 P_____________ WP031998 21.2848 147.716 25 -1 15 38
1998204N17144 1998 40 WP MM NOT_NAMED 1998-07-24 06:00:00 NR 21.9000 148.200 main 1660 1616 O_____________ jtwc_wp WP031998 21.9000 148.200 XX 25 -5 16 35
1998204N17144 1998 40 WP MM NOT_NAMED 1998-07-24 09:00:00 NR 22.6051 148.710 main 1616 1561 P_____________ WP031998 22.6052 148.710 XX 25 -5 17 29
1998204N17144 1998 40 WP MM NOT_NAMED 1998-07-24 12:00:00 NR 23.4000 149.100 main 1561 1496 O_____________ jtwc_wp WP031998 23.4000 149.100 XX 25 -5 18 17
1998204N17144 1998 40 WP MM NOT_NAMED 1998-07-24 15:00:00 NR 24.2848 149.283 main 1486 1403 P_____________ WP031998 24.2848 149.283 XX 25 -5 18 6
1998204N17144 1998 40 WP MM NOT_NAMED 1998-07-24 18:00:00 NR 25.2000 149.300 main 1403 1331 O_____________ jtwc_wp WP031998 25.2000 149.300 XX 25 -5 18 359
1998204N17144 1998 40 WP MM NOT_NAMED 1998-07-24 21:00:00 NR 26.0349 149.260 main 1331 1249 P_____________ WP031998 26.0349 149.260 XX 25 -5 17 354
1998204N17144 1998 40 WP MM NOT_NAMED 1998-07-25 00:00:00 NR 26.9000 149.100 main 1240 1151 O_____________ jtwc_wp WP031998 26.9000 149.100 XX 25 -5 19 350
1998204N17144 1998 40 WP MM NOT_NAMED 1998-07-25 03:00:00 NR 27.8771 148.881 main 1143 1043 P_____________ WP031998 27.8771 148.881 XX 27 -5 21 345
1998204N17144 1998 40 WP MM NOT_NAMED 1998-07-25 06:00:00 NR 28.9000 148.500 main 1035 916 O_____________ jtwc_wp WP031998 28.9000 148.500 XX 30 -5 22 337
1998204N17144 1998 40 WP MM NOT_NAMED 1998-07-25 09:00:00 NR 29.9303 147.903 main 916 792 P_____________ WP031998 29.9303 147.903 XX 37 -5 23 331
1998204N17144 1998 40 WP MM NOT_NAMED 1998-07-25 12:00:00 NR 30.9000 147.200 main 792 689 O_____________ jtwc_wp WP031998 30.9000 147.200 XX 45 -5 21 326
1998204N17144 1998 40 WP MM NOT_NAMED 1998-07-25 15:00:00 NR 31.6999 146.533 main 682 581 P_____________ WP031998 31.6999 146.533 XX 42 -5 19 325
1998204N17144 1998 40 WP MM NOT_NAMED 1998-07-25 18:00:00 NR 32.5000 145.900 main 581 476 O_____________ jtwc_wp WP031998 32.5000 145.900 XX 40 -5 21 329
1998204N17144 1998 40 WP MM NOT_NAMED 1998-07-25 21:00:00 NR 33.4926 145.276 main 470 382 P_____________ WP031998 33.4926 145.276 XX 35 -5 22 335
1998204N17144 1998 40 WP MM NOT_NAMED 1998-07-26 00:00:00 NR 34.5000 144.800 main 378 337 O_____________ jtwc_wp WP031998 34.5000 144.800 XX 30 -5 20 343
1998204N17144 1998 40 WP MM NOT_NAMED 1998-07-26 03:00:00 NR 35.3897 144.574 main 335 324 P_____________ WP031998 35.3897 144.574 XX 27 -5 17 352
1998204N17144 1998 40 WP MM NOT_NAMED 1998-07-26 06:00:00 NR 36.2000 144.500 main 324 O_____________ jtwc_wp WP031998 36.2000 144.500 XX 25 -5 16 356

デジタル台風データ・検索

IBTrACS Databaseについて

本データベースは、米国NOAAが公開する1842年以降の世界の熱帯低気圧のベストトラックデータアーカイブInternational Best Track Archive for Climate Stewardship (IBTrACS)を、ウェブで閲覧しやすい形式に変換したものです。

最終更新日:2021-11-26